Tacoma Narrows Airport Tacoma US
ICAO: KTIW
IATA: TIW
Category: Medium
Scheduled Services: No

Elevation: 294 ft
TransAlt. 18000 ft.

Airport Communications:
SEATTLE APP/DEP:120.1
ATIS:124.05
CTAF:118.5
GND:121.8
TWR:118.5
UNICOM:122.95

KTIW Zoom In..

If you have problems with the map follow the link
https://www.worldairports.se/pages/airport.php?
ICAO=KTIW

Runways:

(A) RW 17 length 5002 ft width 150 ft
ILS 109.10 / hdg 167

(B) RW 35 length 5002 ft width 150 ft
---- / hdg 347

Location; KTIW
Day. 12 / Time. 09.53 Zulu
* Altimeter: 29.87
* Temperature: 09° c. 48.2°f.
* Wind from: KTI° Speed W kn.
Dewpoint: 07° c.
Visibility: 10 Statute Miles.
Clouds: Broken 4000 ft.
Clouds: Broken 6000 ft.

KTIW 120953Z AUTO 20012G19KT 10SM BKN040 BKN060 09/07 A2987 RMK AO2 SLP118 T00890072


Wind From KTI°
Speed W kn.

 
 
jpsmedia worldairports.se 2019   terms of use